createdAt,value
2019-01-21T00:00:46.390Z,68.04
2019-01-21T00:01:44.509Z,68.08
2019-01-21T00:02:22.211Z,68.12
2019-01-21T00:02:59.058Z,67.83
2019-01-21T00:03:35.355Z,67.70
2019-01-21T00:04:11.896Z,67.74
2019-01-21T00:04:48.927Z,67.76
2019-01-21T00:05:25.193Z,67.76
2019-01-21T00:06:01.892Z,67.77
2019-01-21T00:06:38.150Z,67.69
2019-01-21T00:07:16.287Z,67.58
2019-01-21T00:07:53.536Z,67.54
2019-01-21T00:08:30.732Z,67.45
2019-01-21T00:09:09.354Z,67.33
2019-01-21T00:09:45.637Z,67.33
2019-01-21T00:10:22.671Z,67.33
2019-01-21T00:10:58.975Z,67.08
2019-01-21T00:11:35.376Z,66.85
2019-01-21T00:12:12.550Z,66.77
2019-01-21T00:12:49.387Z,66.67
2019-01-21T00:13:25.685Z,66.57
2019-01-21T00:14:02.789Z,66.58
2019-01-21T00:14:39.758Z,66.46
2019-01-21T00:15:16.716Z,66.33
2019-01-21T00:15:53.020Z,66.21
2019-01-21T00:16:30.078Z,66.07
2019-01-21T00:17:06.960Z,65.96
2019-01-21T00:17:45.265Z,65.91
2019-01-21T00:18:22.689Z,65.89
2019-01-21T00:18:59.908Z,65.82
2019-01-21T00:19:36.684Z,65.75
2019-01-21T00:20:13.076Z,65.72
2019-01-21T00:20:50.026Z,65.62
2019-01-21T00:21:26.280Z,65.45
2019-01-21T00:22:03.076Z,65.43
2019-01-21T00:22:40.203Z,65.45
2019-01-21T00:23:19.607Z,65.51
2019-01-21T00:23:55.923Z,65.45
2019-01-21T00:24:33.152Z,65.38
2019-01-21T00:25:10.045Z,65.08
2019-01-21T00:25:47.319Z,64.63
2019-01-21T00:26:23.993Z,64.14
2019-01-21T00:27:01.222Z,64.13
2019-01-21T00:27:37.432Z,64.01
2019-01-21T00:28:13.908Z,63.98
2019-01-21T00:28:50.896Z,63.97
2019-01-21T00:29:26.989Z,64.05
2019-01-21T00:30:04.270Z,64.06
2019-01-21T00:30:41.696Z,64.00
2019-01-21T00:31:18.662Z,63.96
2019-01-21T00:31:55.540Z,63.92
2019-01-21T00:32:32.718Z,63.83
2019-01-21T00:33:09.215Z,63.70
2019-01-21T00:33:46.366Z,63.60
2019-01-21T00:34:23.593Z,63.39
2019-01-21T00:35:00.504Z,63.35
2019-01-21T00:35:37.492Z,63.16
2019-01-21T00:36:14.738Z,63.01
2019-01-21T00:36:51.085Z,62.68
2019-01-21T00:37:27.586Z,62.68
2019-01-21T00:38:04.775Z,62.79
2019-01-21T00:38:41.909Z,63.02
2019-01-21T00:39:18.119Z,63.17
2019-01-21T00:39:55.419Z,63.17
2019-01-21T00:40:33.225Z,63.01
2019-01-21T00:41:11.742Z,62.96
2019-01-21T00:41:48.143Z,62.95
2019-01-21T00:42:25.524Z,62.76
2019-01-21T00:43:01.904Z,62.76
2019-01-21T00:43:38.312Z,62.80
2019-01-21T00:44:15.525Z,62.40
2019-01-21T00:44:52.709Z,62.13
2019-01-21T00:45:30.098Z,62.04
2019-01-21T00:46:06.851Z,61.93
2019-01-21T00:46:43.705Z,61.84
2019-01-21T00:47:19.942Z,61.98
2019-01-21T00:47:56.256Z,61.98
2019-01-21T00:48:33.198Z,62.10
2019-01-21T00:49:09.769Z,62.10
2019-01-21T00:49:46.636Z,61.63
2019-01-21T00:50:23.371Z,61.46
2019-01-21T00:51:00.371Z,61.08
2019-01-21T00:51:36.870Z,61.00
2019-01-21T00:52:13.619Z,60.40
2019-01-21T00:52:50.664Z,60.54
2019-01-21T00:53:26.878Z,60.42
2019-01-21T00:54:03.805Z,60.42
2019-01-21T00:54:41.238Z,60.20
2019-01-21T00:55:17.691Z,60.12
2019-01-21T00:55:54.762Z,60.09
2019-01-21T00:56:32.571Z,60.09
2019-01-21T00:57:08.940Z,60.27
2019-01-21T00:57:45.219Z,60.22
2019-01-21T00:58:22.297Z,60.36
2019-01-21T00:58:58.438Z,59.87
2019-01-21T00:59:35.302Z,59.32
2019-01-21T01:00:15.493Z,59.32
2019-01-21T01:00:51.578Z,58.12
2019-01-21T01:01:27.962Z,58.12
2019-01-21T01:02:04.693Z,57.76
2019-01-21T01:02:40.946Z,58.59
2019-01-21T01:03:18.029Z,58.59
2019-01-21T01:03:54.372Z,58.76
2019-01-21T01:04:31.234Z,58.76
2019-01-21T01:05:08.385Z,58.48
2019-01-21T01:05:44.505Z,58.37
2019-01-21T01:06:20.769Z,57.82
2019-01-21T01:06:57.193Z,57.82
2019-01-21T01:07:34.350Z,57.91
2019-01-21T01:08:10.476Z,57.37
2019-01-21T01:08:47.172Z,57.63
2019-01-21T01:09:24.082Z,57.97
2019-01-21T01:10:00.309Z,57.97
2019-01-21T01:10:36.978Z,57.60
2019-01-21T01:11:13.829Z,57.65
2019-01-21T01:11:50.222Z,57.54
2019-01-21T01:12:26.959Z,57.58
2019-01-21T01:13:03.942Z,57.60
2019-01-21T01:13:42.705Z,57.60
2019-01-21T01:14:20.644Z,57.31
2019-01-21T01:14:57.160Z,57.01
2019-01-21T01:15:33.690Z,57.01
2019-01-21T01:16:11.033Z,57.03
2019-01-21T01:16:47.443Z,56.29
2019-01-21T01:17:24.217Z,56.29
2019-01-21T01:18:00.976Z,56.01
2019-01-21T01:18:38.147Z,56.01
2019-01-21T01:19:15.988Z,56.58
2019-01-21T01:19:54.066Z,55.99
2019-01-21T01:20:30.564Z,55.99
2019-01-21T01:21:07.628Z,56.33
2019-01-21T01:21:44.884Z,55.72
2019-01-21T01:22:21.152Z,55.57
2019-01-21T01:22:57.535Z,55.76
2019-01-21T01:23:34.357Z,55.76
2019-01-21T01:24:11.281Z,55.86
2019-01-21T01:24:47.598Z,55.97
2019-01-21T01:25:24.494Z,55.97
2019-01-21T01:26:01.332Z,56.19
2019-01-21T01:26:38.071Z,56.19
2019-01-21T01:27:14.947Z,55.64
2019-01-21T01:27:51.255Z,55.69
2019-01-21T01:28:35.410Z,55.73
2019-01-21T01:29:11.518Z,55.72
2019-01-21T01:29:48.737Z,55.74
2019-01-21T01:30:25.727Z,55.61
2019-01-21T01:31:01.899Z,55.31
2019-01-21T01:31:38.618Z,55.19
2019-01-21T01:32:15.191Z,54.90
2019-01-21T01:32:52.261Z,54.61
2019-01-21T01:33:29.125Z,54.27
2019-01-21T01:34:06.084Z,54.18
2019-01-21T01:34:42.465Z,54.02
2019-01-21T01:35:19.309Z,53.69
2019-01-21T01:35:56.275Z,53.47
2019-01-21T01:36:32.679Z,53.54
2019-01-21T01:37:09.120Z,53.23
2019-01-21T01:37:46.149Z,53.14
2019-01-21T01:38:23.164Z,53.16
2019-01-21T01:38:59.926Z,53.18
2019-01-21T01:39:36.790Z,53.08
2019-01-21T01:40:18.333Z,53.09
2019-01-21T01:40:55.457Z,53.18
2019-01-21T01:41:31.891Z,53.35
2019-01-21T01:42:08.569Z,53.40
2019-01-21T01:42:45.572Z,53.66
2019-01-21T01:43:22.172Z,53.31
2019-01-21T01:43:59.354Z,53.21
2019-01-21T01:44:36.153Z,53.25
2019-01-21T01:45:15.307Z,53.28
2019-01-21T01:45:51.562Z,53.03
2019-01-21T01:46:28.116Z,52.73
2019-01-21T01:47:04.603Z,52.68
2019-01-21T01:47:44.957Z,52.96
2019-01-21T01:48:19.689Z,53.11
2019-01-21T01:48:56.906Z,53.18
2019-01-21T01:49:33.280Z,52.97
2019-01-21T01:50:10.163Z,52.86
2019-01-21T01:50:47.158Z,52.98
2019-01-21T01:51:23.919Z,53.15
2019-01-21T01:52:00.838Z,53.02
2019-01-21T01:52:37.857Z,52.90
2019-01-21T01:53:14.243Z,52.95
2019-01-21T01:53:50.900Z,53.12
2019-01-21T01:54:27.604Z,52.85
2019-01-21T01:55:03.974Z,52.73
2019-01-21T01:55:41.100Z,52.89
2019-01-21T01:56:17.928Z,52.93
2019-01-21T01:56:54.123Z,53.09
2019-01-21T01:57:31.058Z,53.16
2019-01-21T01:58:08.236Z,53.61
2019-01-21T01:58:44.950Z,53.68
2019-01-21T01:59:21.730Z,53.60
2019-01-21T01:59:58.627Z,53.44
2019-01-21T02:00:34.979Z,53.50
2019-01-21T02:01:12.160Z,53.57
2019-01-21T02:01:48.869Z,53.75
2019-01-21T02:02:25.540Z,53.92
2019-01-21T02:03:01.960Z,53.99
2019-01-21T02:03:38.953Z,54.02
2019-01-21T02:04:15.462Z,53.83
2019-01-21T02:04:52.582Z,53.81
2019-01-21T02:05:29.899Z,54.13
2019-01-21T02:06:06.149Z,54.11
2019-01-21T02:06:42.277Z,53.89
2019-01-21T02:07:19.285Z,53.59
2019-01-21T02:07:55.661Z,53.71
2019-01-21T02:08:32.094Z,53.68
2019-01-21T02:09:10.025Z,53.92
2019-01-21T02:09:46.638Z,53.94
2019-01-21T02:10:23.165Z,53.98
2019-01-21T02:10:59.860Z,54.05
2019-01-21T02:11:36.325Z,54.04
2019-01-21T02:12:12.892Z,54.33
2019-01-21T02:12:49.933Z,54.40
2019-01-21T02:13:26.814Z,54.27
2019-01-21T02:14:03.269Z,54.13
2019-01-21T02:14:48.510Z,53.78
2019-01-21T02:15:25.222Z,53.49
2019-01-21T02:16:01.483Z,53.38
2019-01-21T02:16:38.440Z,53.22
2019-01-21T02:17:14.809Z,53.16
2019-01-21T02:17:52.403Z,53.07
2019-01-21T02:18:29.441Z,53.17
2019-01-21T02:19:05.839Z,53.01
2019-01-21T02:19:44.016Z,52.52
2019-01-21T02:20:20.683Z,52.55
2019-01-21T02:20:57.479Z,52.66
2019-01-21T02:21:35.165Z,52.82
2019-01-21T02:22:12.579Z,52.81
2019-01-21T02:22:52.105Z,52.72
2019-01-21T02:23:31.036Z,52.69
2019-01-21T02:24:09.659Z,52.71
2019-01-21T02:24:45.962Z,52.80
2019-01-21T02:25:25.044Z,52.66
2019-01-21T02:26:04.275Z,52.85
2019-01-21T02:27:24.966Z,52.83
2019-01-21T02:28:38.647Z,52.89
2019-01-21T02:29:27.837Z,53.20
2019-01-21T02:30:26.165Z,52.82
2019-01-21T02:31:39.225Z,52.72
2019-01-21T02:32:49.186Z,52.18
2019-01-21T02:34:10.091Z,52.14
2019-01-21T02:35:20.139Z,52.41
2019-01-21T02:36:29.359Z,52.58
2019-01-21T02:37:40.075Z,52.71
2019-01-21T02:39:08.157Z,52.49
2019-01-21T02:39:59.009Z,52.38
2019-01-21T02:41:01.005Z,52.66
2019-01-21T02:42:02.080Z,52.80
2019-01-21T02:43:07.135Z,52.84
2019-01-21T02:44:12.575Z,52.73
2019-01-21T02:45:18.384Z,52.63
2019-01-21T02:46:24.254Z,52.47
2019-01-21T02:47:15.712Z,51.58
2019-01-21T02:48:23.454Z,51.77
2019-01-21T02:49:32.827Z,51.26
2019-01-21T02:50:35.410Z,51.07
2019-01-21T02:52:22.071Z,51.27
2019-01-21T02:53:49.020Z,51.29
2019-01-21T02:54:56.099Z,51.47
2019-01-21T02:55:54.360Z,51.51
2019-01-21T02:56:59.049Z,50.55
2019-01-21T02:58:15.456Z,50.69
2019-01-21T02:59:27.714Z,50.54
2019-01-21T03:00:44.231Z,50.69
2019-01-21T03:02:06.505Z,50.54
2019-01-21T03:03:07.152Z,50.48
2019-01-21T03:04:01.757Z,50.64
2019-01-21T03:05:22.855Z,50.45
2019-01-21T03:06:29.490Z,50.57
2019-01-21T03:07:28.186Z,50.28
2019-01-21T03:08:37.213Z,50.12
2019-01-21T03:09:54.329Z,50.34
2019-01-21T03:11:10.429Z,50.35
2019-01-21T03:12:16.825Z,49.75
2019-01-21T03:13:37.267Z,49.62
2019-01-21T03:14:58.082Z,49.54
2019-01-21T03:16:07.363Z,49.08
2019-01-21T03:17:30.324Z,48.81
2019-01-21T03:19:08.904Z,48.98
2019-01-21T03:20:22.661Z,48.85
2019-01-21T03:21:49.361Z,48.12
2019-01-21T03:23:01.043Z,47.74
2019-01-21T03:24:15.680Z,48.38
2019-01-21T03:25:31.010Z,48.83
2019-01-21T03:26:46.878Z,48.77
2019-01-21T03:27:57.339Z,48.80
2019-01-21T03:29:08.905Z,48.37
2019-01-21T03:30:11.214Z,48.32
2019-01-21T03:31:23.694Z,48.35
2019-01-21T03:32:47.547Z,48.40
2019-01-21T03:33:45.141Z,48.13
2019-01-21T03:35:05.834Z,48.02
2019-01-21T03:36:16.893Z,47.25
2019-01-21T03:37:42.716Z,46.60
2019-01-21T03:39:08.531Z,46.55
2019-01-21T03:40:13.974Z,46.30
2019-01-21T03:41:11.504Z,46.18
2019-01-21T03:42:07.084Z,46.16
2019-01-21T03:43:05.739Z,46.33
2019-01-21T03:44:10.822Z,46.29
2019-01-21T03:45:22.474Z,46.36
2019-01-21T03:46:20.330Z,46.43
2019-01-21T03:47:32.701Z,45.96
2019-01-21T03:48:34.577Z,46.20
2019-01-21T03:49:21.351Z,46.29
2019-01-21T03:50:26.873Z,46.12
2019-01-21T03:51:46.190Z,45.82
2019-01-21T03:52:52.381Z,45.82
2019-01-21T03:53:56.125Z,45.48
2019-01-21T03:54:40.304Z,45.21
2019-01-21T03:55:18.696Z,45.40
2019-01-21T03:55:58.582Z,45.06
2019-01-21T03:57:29.583Z,44.97
2019-01-21T03:58:48.710Z,44.90
2019-01-21T03:59:57.034Z,45.13
2019-01-21T04:01:01.966Z,45.29
2019-01-21T04:02:37.291Z,45.25
2019-01-21T04:03:53.177Z,44.89
2019-01-21T04:05:06.441Z,45.31
2019-01-21T04:06:01.751Z,45.52
2019-01-21T04:06:51.233Z,45.60
2019-01-21T04:07:57.353Z,45.75
2019-01-21T04:09:24.863Z,45.97
2019-01-21T04:10:20.710Z,45.90
2019-01-21T04:11:23.210Z,46.08
2019-01-21T04:12:23.752Z,45.70
2019-01-21T04:13:32.693Z,45.47
2019-01-21T04:14:44.496Z,45.50
2019-01-21T04:16:06.821Z,45.02
2019-01-21T04:17:18.597Z,45.20
2019-01-21T04:18:29.382Z,45.22
2019-01-21T04:19:37.771Z,44.85
2019-01-21T04:20:42.423Z,45.00
2019-01-21T04:21:52.697Z,44.41
2019-01-21T04:23:06.594Z,44.08
2019-01-21T04:24:21.866Z,44.29
2019-01-21T04:25:42.987Z,44.57
2019-01-21T04:26:37.123Z,44.60
2019-01-21T04:28:03.777Z,44.67
2019-01-21T04:29:07.991Z,44.54
2019-01-21T04:30:21.162Z,44.41
2019-01-21T04:31:31.704Z,44.34
2019-01-21T04:32:28.142Z,44.75
2019-01-21T04:33:36.725Z,43.90
2019-01-21T04:34:50.855Z,44.01
2019-01-21T04:36:09.804Z,43.63
2019-01-21T04:37:29.887Z,43.59
2019-01-21T04:38:52.062Z,43.60
2019-01-21T04:39:59.195Z,43.32
2019-01-21T04:41:12.273Z,43.45
2019-01-21T04:42:20.444Z,43.49
2019-01-21T04:43:40.658Z,43.94
2019-01-21T04:44:48.407Z,43.72
2019-01-21T04:45:32.258Z,43.56
2019-01-21T04:46:43.443Z,43.28
2019-01-21T04:48:07.061Z,43.19
2019-01-21T04:49:26.093Z,43.29
2019-01-21T04:50:49.977Z,43.55
2019-01-21T04:52:15.144Z,43.58
2019-01-21T04:53:12.368Z,43.28
2019-01-21T04:54:41.580Z,42.86
2019-01-21T04:56:01.327Z,42.85
2019-01-21T04:57:23.337Z,42.77
2019-01-21T04:58:38.512Z,43.34
2019-01-21T04:59:54.944Z,43.28
2019-01-21T05:01:02.174Z,43.15
2019-01-21T05:01:57.974Z,43.22
2019-01-21T05:03:08.724Z,43.21
2019-01-21T05:04:29.489Z,43.58
2019-01-21T05:05:46.549Z,43.76
2019-01-21T05:06:49.829Z,43.72
2019-01-21T05:08:21.165Z,43.84
2019-01-21T05:09:14.169Z,43.24
2019-01-21T05:10:15.582Z,43.25
2019-01-21T05:11:31.061Z,43.14
2019-01-21T05:12:32.711Z,43.20
2019-01-21T05:13:38.739Z,43.95
2019-01-21T05:14:33.291Z,44.78
2019-01-21T05:16:02.001Z,44.80
2019-01-21T05:16:54.084Z,44.00
2019-01-21T05:18:21.928Z,43.96
2019-01-21T05:19:33.538Z,43.70
2019-01-21T05:20:42.864Z,43.49
2019-01-21T05:21:55.398Z,43.72
2019-01-21T05:22:49.753Z,43.79
2019-01-21T05:24:11.456Z,43.53
2019-01-21T05:25:36.385Z,43.64
2019-01-21T05:26:18.900Z,43.58
2019-01-21T05:27:35.416Z,43.76
2019-01-21T05:28:47.545Z,43.55
2019-01-21T05:29:36.732Z,43.41
2019-01-21T05:30:53.199Z,43.16
2019-01-21T05:31:45.378Z,43.26
2019-01-21T05:33:14.073Z,43.34
2019-01-21T05:34:16.011Z,43.60
2019-01-21T05:35:43.914Z,44.08
2019-01-21T05:36:52.318Z,44.06
2019-01-21T05:38:07.737Z,44.16
2019-01-21T05:38:56.217Z,44.05
2019-01-21T05:40:09.240Z,44.16
2019-01-21T05:41:20.884Z,44.40
2019-01-21T05:42:45.465Z,44.68
2019-01-21T05:44:03.985Z,44.44
2019-01-21T05:45:08.715Z,44.61
2019-01-21T05:46:16.508Z,44.24
2019-01-21T05:47:23.075Z,44.31
2019-01-21T05:48:48.913Z,44.22
2019-01-21T05:49:44.313Z,44.59
2019-01-21T05:50:55.740Z,44.66
2019-01-21T05:52:25.036Z,44.59
2019-01-21T05:53:50.221Z,44.88
2019-01-21T05:54:52.227Z,45.12
2019-01-21T05:56:18.238Z,45.08
2019-01-21T05:57:30.783Z,45.10
2019-01-21T05:58:47.647Z,44.90
2019-01-21T06:00:11.547Z,45.08
2019-01-21T06:01:27.513Z,45.34
2019-01-21T06:02:25.486Z,45.76
2019-01-21T06:03:25.560Z,45.59
2019-01-21T06:04:56.848Z,45.47
2019-01-21T06:06:02.378Z,45.72
2019-01-21T06:07:18.109Z,46.02
2019-01-21T06:08:46.522Z,46.13
2019-01-21T06:09:56.436Z,45.74
2019-01-21T06:10:53.891Z,45.62
2019-01-21T06:11:54.069Z,45.65
2019-01-21T06:13:05.584Z,45.85
2019-01-21T06:14:30.577Z,45.92
2019-01-21T06:15:24.156Z,45.79
2019-01-21T06:16:20.470Z,45.36
2019-01-21T06:17:36.049Z,45.63
2019-01-21T06:18:21.556Z,46.54
2019-01-21T06:19:19.308Z,46.53
2019-01-21T06:20:29.470Z,46.35
2019-01-21T06:21:52.808Z,46.03
2019-01-21T06:22:43.027Z,45.71
2019-01-21T06:23:43.658Z,45.79
2019-01-21T06:24:54.142Z,46.00
2019-01-21T06:26:19.316Z,46.01
2019-01-21T06:27:59.963Z,46.47
2019-01-21T06:29:08.534Z,46.40
2019-01-21T06:30:29.501Z,46.14
2019-01-21T06:31:40.338Z,45.97
2019-01-21T06:32:49.826Z,45.98
2019-01-21T06:33:52.363Z,46.65
2019-01-21T06:35:11.592Z,46.62
2019-01-21T06:36:15.543Z,46.35
2019-01-21T06:37:47.322Z,45.91
2019-01-21T06:39:11.388Z,45.81
2019-01-21T06:40:48.577Z,46.40
2019-01-21T06:42:03.867Z,46.47
2019-01-21T06:43:28.980Z,45.73
2019-01-21T06:44:28.679Z,45.74
2019-01-21T06:45:51.139Z,45.50
2019-01-21T06:46:47.149Z,45.63
2019-01-21T06:47:38.486Z,45.88
2019-01-21T06:48:47.107Z,45.92
2019-01-21T06:50:05.362Z,46.45
2019-01-21T06:51:21.521Z,45.90
2019-01-21T06:52:40.602Z,46.12
2019-01-21T06:53:48.317Z,46.21
2019-01-21T06:54:57.883Z,46.51
2019-01-21T06:55:59.908Z,46.28
2019-01-21T06:57:06.657Z,45.72
2019-01-21T06:58:10.241Z,45.38
2019-01-21T06:59:24.726Z,45.43
2019-01-21T07:00:23.776Z,45.51
2019-01-21T07:01:23.071Z,45.75
2019-01-21T07:02:49.144Z,45.72
2019-01-21T07:04:14.536Z,45.91
2019-01-21T07:05:28.443Z,45.75
2019-01-21T07:06:33.380Z,46.07
2019-01-21T07:07:53.306Z,46.03
2019-01-21T07:09:06.312Z,46.27
2019-01-21T07:10:11.123Z,45.98
2019-01-21T07:11:18.193Z,45.80
2019-01-21T07:12:39.294Z,45.98
2019-01-21T07:13:44.428Z,45.80
2019-01-21T07:15:06.861Z,44.96
2019-01-21T07:16:20.901Z,45.17
2019-01-21T07:17:28.965Z,45.38
2019-01-21T07:18:52.402Z,45.80
2019-01-21T07:20:14.932Z,45.75
2019-01-21T07:21:35.762Z,45.38
2019-01-21T07:22:38.453Z,45.80
2019-01-21T07:23:51.266Z,44.86
2019-01-21T07:24:39.825Z,44.72
2019-01-21T07:25:53.537Z,44.89
2019-01-21T07:27:04.932Z,44.80
2019-01-21T07:28:18.865Z,45.57
2019-01-21T07:29:37.021Z,45.44
2019-01-21T07:30:45.812Z,45.32
2019-01-21T07:31:47.159Z,44.28
2019-01-21T07:33:06.386Z,44.81
2019-01-21T07:33:55.963Z,44.83
2019-01-21T07:35:03.206Z,44.63
2019-01-21T07:36:22.832Z,44.40
2019-01-21T07:37:47.252Z,44.39
2019-01-21T07:38:47.603Z,44.39
2019-01-21T07:40:13.506Z,44.58
2019-01-21T07:41:51.270Z,44.89
2019-01-21T07:42:52.701Z,44.95
2019-01-21T07:44:05.156Z,44.68
2019-01-21T07:45:04.147Z,45.17
2019-01-21T07:46:08.942Z,45.46
2019-01-21T07:47:13.376Z,44.81
2019-01-21T07:48:17.880Z,45.20
2019-01-21T07:49:32.015Z,45.21
2019-01-21T07:50:38.884Z,45.21
2019-01-21T07:51:41.852Z,44.51
2019-01-21T07:53:00.611Z,43.77
2019-01-21T07:54:13.799Z,43.36
2019-01-21T07:55:27.880Z,43.31
2019-01-21T07:56:31.629Z,43.07
2019-01-21T07:57:40.174Z,43.14
2019-01-21T07:58:40.261Z,43.63
2019-01-21T08:00:06.641Z,43.09
2019-01-21T08:01:10.600Z,42.99
2019-01-21T08:02:28.058Z,43.10
2019-01-21T08:03:37.794Z,43.33
2019-01-21T08:04:57.569Z,43.64
2019-01-21T08:06:05.749Z,43.66
2019-01-21T08:06:58.726Z,45.27
2019-01-21T08:07:54.579Z,46.14
2019-01-21T08:08:47.447Z,46.54
2019-01-21T08:09:58.563Z,46.21
2019-01-21T08:11:03.998Z,45.72
2019-01-21T08:12:17.214Z,45.77
2019-01-21T08:13:37.060Z,45.74
2019-01-21T08:14:52.141Z,44.79
2019-01-21T08:16:11.045Z,44.50
2019-01-21T08:17:18.150Z,44.85
2019-01-21T08:18:36.497Z,45.60
2019-01-21T08:19:38.294Z,45.95
2019-01-21T08:20:40.946Z,45.96
2019-01-21T08:21:35.882Z,46.36
2019-01-21T08:23:01.990Z,46.48
2019-01-21T08:24:25.033Z,46.53
2019-01-21T08:25:44.699Z,46.28
2019-01-21T08:27:07.825Z,45.56
2019-01-21T08:28:12.340Z,44.48
2019-01-21T08:29:03.063Z,44.73
2019-01-21T08:30:12.634Z,45.19
2019-01-21T08:31:22.686Z,45.37
2019-01-21T08:32:13.885Z,45.69
2019-01-21T08:33:29.733Z,46.47
2019-01-21T08:34:42.966Z,46.40
2019-01-21T08:35:35.568Z,45.86
2019-01-21T08:36:39.912Z,46.13
2019-01-21T08:37:45.427Z,46.23
2019-01-21T08:38:35.642Z,46.19
2019-01-21T08:39:40.218Z,46.83
2019-01-21T08:40:34.814Z,47.14
2019-01-21T08:41:48.356Z,47.18
2019-01-21T08:43:11.358Z,47.30
2019-01-21T08:44:14.559Z,47.48
2019-01-21T08:45:46.776Z,47.42
2019-01-21T08:46:44.076Z,46.84
2019-01-21T08:47:34.000Z,47.52
2019-01-21T08:48:50.594Z,47.47
2019-01-21T08:49:58.347Z,47.38
2019-01-21T08:51:23.560Z,47.31
2019-01-21T08:52:55.916Z,46.69
2019-01-21T08:53:57.034Z,46.85
2019-01-21T08:55:09.395Z,46.71
2019-01-21T08:56:28.003Z,46.37
2019-01-21T08:57:30.607Z,46.77
2019-01-21T08:59:00.315Z,47.51
2019-01-21T09:00:19.386Z,46.74
2019-01-21T09:01:21.104Z,46.81
2019-01-21T09:02:33.647Z,46.87
2019-01-21T09:03:41.646Z,47.16
2019-01-21T09:04:53.138Z,47.15
2019-01-21T09:05:56.745Z,47.40
2019-01-21T09:07:00.757Z,47.31
2019-01-21T09:08:09.722Z,47.30
2019-01-21T09:09:10.348Z,47.20
2019-01-21T09:10:18.590Z,46.75
2019-01-21T09:11:21.163Z,47.04
2019-01-21T09:12:15.960Z,47.63
2019-01-21T09:13:22.259Z,47.65
2019-01-21T09:14:27.489Z,48.24
2019-01-21T09:15:59.314Z,48.36
2019-01-21T09:17:07.570Z,48.51
2019-01-21T09:18:03.000Z,48.08
2019-01-21T09:19:02.678Z,48.47
2019-01-21T09:20:10.661Z,48.52
2019-01-21T09:21:29.057Z,48.50
2019-01-21T09:22:55.145Z,48.52
2019-01-21T09:24:13.694Z,48.64
2019-01-21T09:25:29.977Z,48.91
2019-01-21T09:26:26.143Z,48.69
2019-01-21T09:27:15.959Z,48.51
2019-01-21T09:28:33.199Z,49.30
2019-01-21T09:29:54.057Z,49.26
2019-01-21T09:31:07.216Z,49.30
2019-01-21T09:32:29.725Z,49.01
2019-01-21T09:33:48.264Z,48.87
2019-01-21T09:34:52.202Z,48.96
2019-01-21T09:35:56.164Z,49.16
2019-01-21T09:36:59.689Z,48.85
2019-01-21T09:38:06.462Z,49.43
2019-01-21T09:39:21.287Z,49.54
2019-01-21T09:40:24.082Z,49.18
2019-01-21T09:41:14.054Z,48.88
2019-01-21T09:42:39.483Z,49.00
2019-01-21T09:43:43.852Z,49.03
2019-01-21T09:44:28.664Z,48.89
2019-01-21T09:45:41.563Z,48.90
2019-01-21T09:46:43.297Z,49.04
2019-01-21T09:47:16.601Z,48.64
2019-01-21T09:47:50.089Z,49.03
2019-01-21T09:48:24.382Z,49.33
2019-01-21T09:49:01.519Z,49.05
2019-01-21T09:49:43.575Z,49.10
2019-01-21T09:50:16.011Z,49.09
2019-01-21T09:50:53.397Z,49.24
2019-01-21T09:51:29.754Z,48.85
2019-01-21T09:52:09.250Z,48.47
2019-01-21T09:52:46.302Z,48.64
2019-01-21T09:53:22.608Z,48.96
2019-01-21T09:53:59.157Z,49.04
2019-01-21T09:54:36.907Z,48.83
2019-01-21T09:55:14.330Z,48.97
2019-01-21T09:55:52.791Z,48.41
2019-01-21T09:56:34.483Z,48.16
2019-01-21T09:57:17.455Z,48.36
2019-01-21T09:58:02.640Z,48.29
2019-01-21T09:58:40.249Z,48.38
2019-01-21T09:59:16.537Z,48.45
2019-01-21T10:00:07.395Z,48.43
2019-01-21T10:00:43.694Z,48.29
2019-01-21T10:01:20.562Z,48.00
2019-01-21T10:01:59.952Z,47.97
2019-01-21T10:02:50.971Z,48.07
2019-01-21T10:03:28.227Z,48.44
2019-01-21T10:04:05.360Z,48.16
2019-01-21T10:05:01.139Z,48.34
2019-01-21T10:05:38.412Z,48.50
2019-01-21T10:06:15.346Z,48.09
2019-01-21T10:07:12.319Z,48.15
2019-01-21T10:08:26.604Z,48.25
2019-01-21T10:09:55.372Z,48.37
2019-01-21T10:11:03.306Z,48.47
2019-01-21T10:12:02.947Z,48.78
2019-01-21T10:13:02.309Z,48.92
2019-01-21T10:14:24.503Z,49.00
2019-01-21T10:15:35.423Z,48.67
2019-01-21T10:16:47.082Z,49.21
2019-01-21T10:17:58.269Z,49.47
2019-01-21T10:19:21.236Z,48.98
2019-01-21T10:20:39.073Z,49.21
2019-01-21T10:22:05.651Z,49.17
2019-01-21T10:23:22.024Z,48.79
2019-01-21T10:24:40.368Z,49.09
2019-01-21T10:25:33.510Z,49.44
2019-01-21T10:26:34.501Z,49.62
2019-01-21T10:28:07.135Z,49.48
2019-01-21T10:29:16.387Z,49.51
2019-01-21T10:30:36.310Z,49.84
2019-01-21T10:31:59.231Z,50.14
2019-01-21T10:33:10.346Z,50.23
2019-01-21T10:34:28.123Z,50.30
2019-01-21T10:35:46.051Z,50.45
2019-01-21T10:37:16.284Z,50.49
2019-01-21T10:38:34.250Z,50.59
2019-01-21T10:40:02.131Z,50.83
2019-01-21T10:40:51.754Z,50.61
2019-01-21T10:41:44.739Z,51.07
2019-01-21T10:42:46.264Z,51.10
2019-01-21T10:44:00.230Z,51.05
2019-01-21T10:45:03.262Z,51.31
2019-01-21T10:46:36.652Z,51.42
2019-01-21T10:47:35.458Z,51.81
2019-01-21T10:48:42.526Z,51.82
2019-01-21T10:49:50.057Z,51.90
2019-01-21T10:51:26.455Z,52.01
2019-01-21T10:52:48.363Z,52.30
2019-01-21T10:54:00.262Z,52.55
2019-01-21T10:54:51.444Z,52.54
2019-01-21T10:55:50.471Z,52.80
2019-01-21T10:57:07.912Z,52.84
2019-01-21T10:58:02.383Z,53.04
2019-01-21T10:59:24.356Z,53.30
2019-01-21T11:00:47.586Z,53.28
2019-01-21T11:02:13.923Z,53.30
2019-01-21T11:03:40.309Z,53.39
2019-01-21T11:04:51.952Z,53.32
2019-01-21T11:06:12.071Z,53.18
2019-01-21T11:07:16.734Z,53.31
2019-01-21T11:08:27.149Z,53.09
2019-01-21T11:09:36.836Z,52.89
2019-01-21T11:11:05.496Z,52.85
2019-01-21T11:12:25.225Z,52.92
2019-01-21T11:13:23.137Z,53.03
2019-01-21T11:14:40.462Z,53.25
2019-01-21T11:15:34.295Z,53.38
2019-01-21T11:16:39.739Z,53.48
2019-01-21T11:18:04.052Z,53.31
2019-01-21T11:19:10.807Z,53.48
2019-01-21T11:20:16.177Z,53.62
2019-01-21T11:21:39.644Z,53.69
2019-01-21T11:22:27.212Z,53.77
2019-01-21T11:23:29.274Z,53.67
2019-01-21T11:24:50.903Z,53.74
2019-01-21T11:26:05.647Z,53.60
2019-01-21T11:27:19.066Z,53.80
2019-01-21T11:28:42.558Z,53.82
2019-01-21T11:30:06.302Z,53.96
2019-01-21T11:31:37.095Z,54.23
2019-01-21T11:32:52.325Z,54.39
2019-01-21T11:34:06.098Z,54.38
2019-01-21T11:35:07.471Z,54.19
2019-01-21T11:36:33.620Z,54.12
2019-01-21T11:37:33.862Z,54.04
2019-01-21T11:38:24.546Z,54.07
2019-01-21T11:39:25.250Z,54.11
2019-01-21T11:40:32.494Z,53.99
2019-01-21T11:41:58.328Z,53.95
2019-01-21T11:43:30.131Z,53.89
2019-01-21T11:44:26.791Z,54.00
2019-01-21T11:45:35.660Z,53.92
2019-01-21T11:46:44.067Z,53.85
2019-01-21T11:47:55.773Z,53.85
2019-01-21T11:49:00.790Z,53.96
2019-01-21T11:49:49.635Z,54.04
2019-01-21T11:51:18.111Z,54.06
2019-01-21T11:52:33.121Z,54.18
2019-01-21T11:54:05.102Z,54.28
2019-01-21T11:55:30.804Z,54.59
2019-01-21T11:56:50.133Z,54.45
2019-01-21T11:58:18.825Z,54.45
2019-01-21T11:59:13.774Z,54.52
2019-01-21T12:00:15.546Z,54.59
2019-01-21T12:01:34.568Z,54.65
2019-01-21T12:02:45.689Z,54.56
2019-01-21T12:03:53.864Z,54.28
2019-01-21T12:04:57.535Z,53.99
2019-01-21T12:05:48.208Z,53.96
2019-01-21T12:06:36.920Z,54.15
2019-01-21T12:07:57.985Z,54.11
2019-01-21T12:09:20.202Z,54.06
2019-01-21T12:10:25.454Z,53.96
2019-01-21T12:11:42.998Z,53.86
2019-01-21T12:12:49.872Z,53.88
2019-01-21T12:13:58.196Z,54.08
2019-01-21T12:15:07.087Z,54.16
2019-01-21T12:16:25.406Z,53.98
2019-01-21T12:17:24.318Z,53.95
2019-01-21T12:18:26.472Z,53.98
2019-01-21T12:19:13.977Z,53.86
2019-01-21T12:20:39.484Z,53.97
2019-01-21T12:21:52.024Z,53.84
2019-01-21T12:22:58.510Z,53.82
2019-01-21T12:23:58.938Z,53.75
2019-01-21T12:24:59.886Z,53.90
2019-01-21T12:25:44.273Z,54.08
2019-01-21T12:26:30.873Z,54.09
2019-01-21T12:27:44.638Z,54.16
2019-01-21T12:28:54.060Z,54.26
2019-01-21T12:30:04.773Z,54.32
2019-01-21T12:31:14.934Z,54.36
2019-01-21T12:32:21.643Z,54.24
2019-01-21T12:33:45.391Z,54.25
2019-01-21T12:34:58.097Z,54.15
2019-01-21T12:36:06.414Z,54.16
2019-01-21T12:37:07.537Z,54.22
2019-01-21T12:38:21.285Z,54.37
2019-01-21T12:39:31.447Z,54.44
2019-01-21T12:40:19.341Z,54.77
2019-01-21T12:41:43.758Z,54.70